Time;durP1;ratioP1;P1;durP2;ratioP2;P2;SDS_P1;SDS_P2;PMS_P1;PMS_P2;Temp;Humidity;BMP_temperature;BMP_pressure;BME280_temperature;BME280_humidity;BME280_pressure;Samples;Min_cycle;Max_cycle;Signal;HPM_P1;HPM_P2
2022/07/21 00:00:24;;;;;;;11.43;6.78;;;21.00;99.90;;;;;;5083291;28;20083;-66
2022/07/21 00:02:51;;;;;;;13.57;6.18;;;21.00;99.90;;;;;;5049882;28;20087;-67
2022/07/21 00:05:17;;;;;;;12.95;6.35;;;21.00;99.90;;;;;;5050029;28;20045;-66
2022/07/21 00:07:43;;;;;;;10.20;6.38;;;21.10;99.90;;;;;;5066479;28;20048;-68
2022/07/21 00:10:09;;;;;;;11.93;6.60;;;21.10;99.90;;;;;;5082540;28;20457;-70
2022/07/21 00:12:35;;;;;;;8.93;6.55;;;21.10;99.90;;;;;;5083512;28;20160;-66
2022/07/21 00:15:02;;;;;;;14.15;7.60;;;21.10;99.90;;;;;;5066801;28;20183;-66
2022/07/21 00:17:28;;;;;;;13.35;7.28;;;21.10;99.90;;;;;;5083422;28;20057;-66
2022/07/21 00:19:53;;;;;;;12.68;7.53;;;21.00;99.90;;;;;;5049587;28;20064;-66
2022/07/21 00:22:19;;;;;;;12.63;7.43;;;21.00;99.90;;;;;;5049693;28;20049;-66
2022/07/21 00:24:45;;;;;;;13.40;7.30;;;20.90;99.90;;;;;;5083334;28;20119;-66
2022/07/21 00:27:11;;;;;;;13.80;7.43;;;20.90;99.90;;;;;;5066673;28;20041;-66
2022/07/21 00:29:36;;;;;;;14.48;7.57;;;20.80;99.90;;;;;;5049396;28;20128;-66
2022/07/21 00:32:04;;;;;;;14.25;7.28;;;20.70;99.90;;;;;;5049836;28;20048;-66
2022/07/21 00:34:29;;;;;;;13.88;8.13;;;20.80;99.90;;;;;;5046008;28;20068;-66
2022/07/21 00:36:55;;;;;;;16.13;8.07;;;20.70;99.90;;;;;;5049630;28;20051;-67
2022/07/21 00:39:21;;;;;;;13.35;7.47;;;20.70;99.90;;;;;;5049231;28;20525;-65
2022/07/21 00:41:49;;;;;;;13.88;8.23;;;20.70;99.90;;;;;;5065846;28;20080;-65
2022/07/21 00:44:20;;;;;;;14.35;7.88;;;20.70;99.90;;;;;;5014479;28;20089;-67
2022/07/21 00:46:46;;;;;;;21.15;9.15;;;20.70;99.90;;;;;;5084943;28;20403;-67
2022/07/21 00:49:11;;;;;;;19.05;10.07;;;20.60;99.90;;;;;;5052814;28;20045;-67
2022/07/21 00:51:37;;;;;;;21.42;10.30;;;20.40;99.90;;;;;;5053245;28;20503;-68
2022/07/21 00:54:03;;;;;;;19.58;10.25;;;20.20;99.90;;;;;;5052888;28;20041;-68
2022/07/21 00:56:28;;;;;;;19.15;10.45;;;20.00;99.90;;;;;;5053223;28;20052;-68
2022/07/21 00:58:54;;;;;;;20.80;11.60;;;19.80;99.90;;;;;;5086573;28;20041;-68
2022/07/21 01:01:20;;;;;;;21.85;11.60;;;19.60;99.90;;;;;;5052680;28;20040;-67
2022/07/21 01:03:45;;;;;;;25.75;12.52;;;19.50;99.90;;;;;;5036012;28;20502;-67
2022/07/21 01:06:11;;;;;;;19.67;11.60;;;19.40;99.90;;;;;;5052968;28;20503;-70
2022/07/21 01:08:37;;;;;;;19.52;11.13;;;19.40;99.90;;;;;;5052736;28;20045;-68
2022/07/21 01:11:03;;;;;;;22.98;13.40;;;19.50;99.90;;;;;;5035852;28;20110;-67
2022/07/21 01:13:29;;;;;;;26.65;13.65;;;19.50;99.90;;;;;;5052674;28;20480;-67
2022/07/21 01:15:55;;;;;;;24.65;13.63;;;19.50;99.90;;;;;;5036084;28;20136;-67
2022/07/21 01:18:21;;;;;;;26.23;12.82;;;19.50;99.90;;;;;;5036010;28;20478;-67
2022/07/21 01:20:52;;;;;;;25.13;12.95;;;19.50;99.90;;;;;;5035463;28;20072;-67
2022/07/21 01:23:19;;;;;;;28.48;14.52;;;19.50;99.90;;;;;;5035464;28;20396;-67
2022/07/21 01:25:50;;;;;;;22.05;13.55;;;19.50;99.90;;;;;;5052764;28;20135;-67
2022/07/21 01:28:16;;;;;;;25.87;12.80;;;19.50;99.90;;;;;;5019500;28;20053;-68
2022/07/21 01:30:42;;;;;;;19.70;12.85;;;19.40;99.90;;;;;;5035423;28;20140;-67
2022/07/21 01:33:08;;;;;;;20.38;13.05;;;19.50;99.90;;;;;;5035491;28;20483;-67
2022/07/21 01:35:33;;;;;;;23.38;13.80;;;19.50;99.90;;;;;;5035794;28;20115;-67
2022/07/21 01:38:00;;;;;;;24.60;13.52;;;19.40;99.90;;;;;;5052470;28;20053;-67
2022/07/21 01:43:10;;;;;;;33.80;14.85;;;19.40;99.90;;;;;;5050352;28;20064;-67
2022/07/21 01:45:36;;;;;;;31.67;15.88;;;19.50;99.90;;;;;;5069044;28;20044;-67
2022/07/21 01:48:02;;;;;;;29.23;14.80;;;19.50;99.90;;;;;;5051825;28;20056;-67
2022/07/21 01:50:28;;;;;;;24.63;14.55;;;19.60;99.90;;;;;;5034979;28;20087;-69
2022/07/21 01:52:58;;;;;;;26.05;14.63;;;19.50;99.90;;;;;;5035517;28;20053;-67
2022/07/21 01:55:25;;;;;;;23.23;13.00;;;19.50;99.90;;;;;;5036047;28;20075;-66
2022/07/21 01:57:51;;;;;;;22.67;13.68;;;19.50;99.90;;;;;;5051697;28;20053;-67
2022/07/21 02:00:17;;;;;;;21.50;13.18;;;19.50;99.90;;;;;;5051429;28;20498;-68
2022/07/21 02:02:43;;;;;;;25.23;14.20;;;19.50;99.90;;;;;;5034876;28;20040;-67
2022/07/21 02:05:09;;;;;;;26.10;14.45;;;19.50;99.90;;;;;;5051957;28;20126;-71
2022/07/21 02:07:35;;;;;;;26.33;14.45;;;19.50;99.90;;;;;;5035409;28;20044;-68
2022/07/21 02:10:00;;;;;;;36.22;16.23;;;19.50;99.90;;;;;;5034717;28;20497;-68
2022/07/21 02:12:26;;;;;;;30.85;15.95;;;19.50;99.90;;;;;;5051459;28;20041;-68
2022/07/21 02:14:52;;;;;;;29.92;16.23;;;19.60;99.90;;;;;;5051259;28;20082;-69
2022/07/21 02:17:18;;;;;;;23.85;14.70;;;19.60;99.90;;;;;;5034677;28;20111;-68
2022/07/21 02:19:43;;;;;;;23.05;14.40;;;19.60;99.90;;;;;;5051144;28;20456;-67
2022/07/21 02:22:09;;;;;;;27.13;15.00;;;19.60;99.90;;;;;;5051454;28;20225;-69
2022/07/21 02:24:35;;;;;;;24.27;14.55;;;19.60;99.90;;;;;;5051329;28;20045;-67
2022/07/21 02:27:01;;;;;;;30.58;15.45;;;19.50;99.90;;;;;;5034687;28;20128;-67
2022/07/21 02:29:27;;;;;;;24.33;15.13;;;19.60;99.90;;;;;;5034357;28;20052;-66
2022/07/21 02:31:53;;;;;;;22.55;15.63;;;19.50;99.90;;;;;;5067799;28;20044;-67
2022/07/21 02:34:18;;;;;;;27.08;16.58;;;19.60;99.90;;;;;;5063246;28;20106;-68
2022/07/21 02:36:44;;;;;;;25.48;15.13;;;19.50;99.90;;;;;;5053097;28;20067;-67
2022/07/21 02:39:10;;;;;;;27.00;15.55;;;19.50;99.90;;;;;;5050786;28;20048;-67
2022/07/21 02:41:36;;;;;;;23.63;14.85;;;19.60;99.90;;;;;;5034606;28;20040;-67
2022/07/21 02:44:01;;;;;;;29.05;16.20;;;19.50;99.90;;;;;;5034119;28;20411;-67
2022/07/21 02:46:27;;;;;;;24.00;15.65;;;19.50;99.90;;;;;;5050618;28;20049;-66
2022/07/21 02:48:53;;;;;;;23.67;15.18;;;19.40;99.90;;;;;;5050965;28;20049;-70
2022/07/21 02:51:18;;;;;;;29.60;15.80;;;19.40;99.90;;;;;;5050613;28;20053;-67
2022/07/21 02:53:44;;;;;;;26.95;16.25;;;19.40;99.90;;;;;;5034291;28;20044;-66
2022/07/21 02:56:09;;;;;;;25.90;15.40;;;19.30;99.90;;;;;;5034065;28;20045;-67
2022/07/21 02:58:35;;;;;;;33.25;16.02;;;19.30;99.90;;;;;;5034317;28;20414;-67
2022/07/21 03:01:04;;;;;;;27.90;15.02;;;19.40;99.90;;;;;;5017237;28;20104;-66
2022/07/21 03:03:32;;;;;;;29.25;16.50;;;19.40;99.90;;;;;;5050647;28;20422;-66
2022/07/21 03:05:59;;;;;;;35.03;16.80;;;19.40;99.90;;;;;;5050443;28;20060;-69
2022/07/21 03:08:27;;;;;;;30.60;17.23;;;19.40;99.90;;;;;;5033571;28;20049;-67
2022/07/21 03:10:52;;;;;;;25.83;16.85;;;19.40;99.90;;;;;;5050108;28;20044;-67
2022/07/21 03:13:18;;;;;;;32.88;17.80;;;19.40;99.90;;;;;;5050460;28;20564;-68
2022/07/21 03:15:44;;;;;;;27.23;16.63;;;19.40;99.90;;;;;;5051182;28;20053;-67
2022/07/21 03:18:10;;;;;;;25.50;15.98;;;19.40;99.90;;;;;;5050592;28;20095;-68
2022/07/21 03:20:38;;;;;;;29.20;18.00;;;19.40;99.90;;;;;;5033561;28;20068;-67
2022/07/21 03:23:04;;;;;;;32.15;18.08;;;19.40;99.90;;;;;;5050327;28;20045;-67
2022/07/21 03:25:30;;;;;;;33.97;17.70;;;19.50;99.90;;;;;;5050216;28;20048;-68
2022/07/21 03:27:57;;;;;;;35.75;17.98;;;19.40;99.90;;;;;;5050290;28;20176;-68
2022/07/21 03:30:23;;;;;;;31.42;18.95;;;19.40;99.90;;;;;;5049827;28;20056;-67
2022/07/21 03:32:50;;;;;;;28.40;16.52;;;19.50;99.90;;;;;;5066704;28;20415;-68
2022/07/21 03:35:16;;;;;;;30.70;17.60;;;19.50;99.90;;;;;;5083777;28;20648;-67
2022/07/21 03:37:56;;;;;;;32.58;17.90;;;19.50;99.90;;;;;;5066790;28;20124;-67
2022/07/21 03:40:24;;;;;;;27.02;16.70;;;19.40;99.90;;;;;;5049233;28;20076;-67
2022/07/21 03:42:54;;;;;;;29.02;17.33;;;19.50;99.90;;;;;;5049940;28;20052;-67
2022/07/21 03:45:21;;;;;;;34.53;17.65;;;19.40;99.90;;;;;;5049808;28;20044;-67
2022/07/21 03:47:50;;;;;;;27.77;17.02;;;19.40;99.90;;;;;;5032849;28;20056;-70
2022/07/21 03:50:18;;;;;;;26.67;16.77;;;19.40;99.90;;;;;;5049400;28;20442;-67
2022/07/21 03:52:47;;;;;;;37.17;17.95;;;19.40;99.90;;;;;;5033106;28;20057;-67
2022/07/21 03:55:17;;;;;;;34.75;18.92;;;19.40;99.90;;;;;;5049064;28;21540;-69
2022/07/21 03:57:48;;;;;;;29.45;17.35;;;19.40;99.90;;;;;;5050019;28;20097;-67
2022/07/21 04:00:18;;;;;;;28.15;17.38;;;19.40;99.90;;;;;;5032508;28;20037;-70
2022/07/21 04:02:44;;;;;;;28.92;17.15;;;19.40;99.90;;;;;;5066165;28;20041;-68
2022/07/21 04:05:14;;;;;;;25.95;17.17;;;19.40;99.90;;;;;;5033468;28;20128;-67
2022/07/21 04:07:42;;;;;;;29.55;18.38;;;19.40;99.90;;;;;;5017082;28;20410;-68
2022/07/21 04:10:18;;;;;;;28.02;18.08;;;19.30;99.90;;;;;;5033075;28;20438;-68
2022/07/21 04:12:45;;;;;;;26.60;17.35;;;19.30;99.90;;;;;;5050023;28;20052;-70
2022/07/21 04:15:11;;;;;;;28.45;17.73;;;19.30;99.90;;;;;;5033575;28;20072;-68
2022/07/21 04:17:38;;;;;;;31.73;18.13;;;19.30;99.90;;;;;;5033839;28;20052;-69
2022/07/21 04:20:05;;;;;;;30.02;17.27;;;19.30;99.90;;;;;;5049552;28;20095;-68
2022/07/21 04:22:31;;;;;;;27.15;17.20;;;19.20;99.90;;;;;;5053204;28;20045;-69
2022/07/21 04:24:57;;;;;;;28.08;18.15;;;19.30;99.90;;;;;;5053726;28;20090;-68
2022/07/21 04:27:22;;;;;;;36.75;18.88;;;19.20;99.90;;;;;;5053875;28;20063;-69
2022/07/21 04:29:48;;;;;;;25.75;18.13;;;19.20;99.90;;;;;;5053424;28;20495;-67
2022/07/21 04:32:14;;;;;;;35.13;19.33;;;19.20;99.90;;;;;;5053808;28;20049;-67
2022/07/21 04:34:40;;;;;;;31.30;18.20;;;19.30;99.90;;;;;;5050468;28;20099;-68
2022/07/21 04:37:06;;;;;;;33.65;18.35;;;19.20;99.90;;;;;;5037342;28;20127;-67
2022/07/21 04:39:31;;;;;;;30.52;18.27;;;19.20;99.90;;;;;;5053065;28;20677;-67
2022/07/21 04:41:57;;;;;;;29.67;17.73;;;19.30;99.90;;;;;;5020357;28;20045;-67
2022/07/21 04:44:23;;;;;;;35.13;18.52;;;19.30;99.90;;;;;;5020556;28;20131;-67
2022/07/21 04:46:49;;;;;;;31.15;17.77;;;19.30;99.90;;;;;;5037063;28;20045;-67
2022/07/21 04:49:14;;;;;;;27.08;18.02;;;19.30;99.90;;;;;;5036314;28;20128;-66
2022/07/21 04:51:40;;;;;;;36.28;18.83;;;19.30;99.90;;;;;;5052913;28;20045;-66
2022/07/21 04:54:07;;;;;;;37.13;19.65;;;19.30;99.90;;;;;;5036594;28;20041;-67
2022/07/21 04:56:34;;;;;;;29.95;18.75;;;19.20;99.90;;;;;;5053336;28;20131;-67
2022/07/21 04:59:01;;;;;;;29.73;18.67;;;19.20;99.90;;;;;;5069813;28;20049;-67
2022/07/21 05:01:26;;;;;;;30.73;18.42;;;19.20;99.90;;;;;;5036697;28;20072;-67
2022/07/21 05:03:52;;;;;;;37.10;18.95;;;19.20;99.90;;;;;;5019587;28;20494;-68
2022/07/21 05:06:18;;;;;;;30.45;18.77;;;19.20;99.90;;;;;;5036468;28;20502;-67
2022/07/21 05:08:44;;;;;;;30.77;19.33;;;19.10;99.90;;;;;;5052393;28;20045;-66
2022/07/21 05:11:10;;;;;;;36.00;20.42;;;19.20;99.90;;;;;;5052922;28;20049;-67
2022/07/21 05:13:35;;;;;;;30.23;19.08;;;19.20;99.90;;;;;;5036409;28;20037;-67
2022/07/21 05:16:01;;;;;;;33.80;18.90;;;19.20;99.90;;;;;;5036448;28;20041;-68
2022/07/21 05:18:30;;;;;;;33.20;19.30;;;19.30;99.90;;;;;;5036201;28;20487;-69
2022/07/21 05:20:56;;;;;;;32.15;19.83;;;19.20;99.90;;;;;;5019429;28;20128;-68
2022/07/21 05:23:21;;;;;;;31.52;19.67;;;19.20;99.90;;;;;;5035979;28;20124;-66
2022/07/21 05:25:47;;;;;;;33.22;19.52;;;19.30;99.90;;;;;;5052802;28;20483;-66
2022/07/21 05:28:13;;;;;;;34.85;20.50;;;19.40;99.90;;;;;;5035788;28;20048;-67
2022/07/21 05:30:38;;;;;;;32.28;21.08;;;19.40;99.90;;;;;;5052167;28;20052;-70
2022/07/21 05:33:04;;;;;;;38.90;21.08;;;19.60;99.90;;;;;;5051837;28;20076;-66
2022/07/21 05:35:30;;;;;;;37.78;22.23;;;19.60;99.90;;;;;;5003220;28;20052;-66
2022/07/21 05:37:56;;;;;;;35.50;22.00;;;19.70;99.90;;;;;;5035969;28;20095;-69
2022/07/21 05:40:22;;;;;;;37.40;22.67;;;19.70;99.90;;;;;;5019156;28;20044;-67
2022/07/21 05:42:47;;;;;;;34.65;23.27;;;19.80;99.90;;;;;;5035207;28;20398;-67
2022/07/21 05:45:13;;;;;;;39.33;22.30;;;19.80;99.90;;;;;;5052335;28;20071;-67
2022/07/21 05:47:39;;;;;;;41.95;23.80;;;19.80;99.90;;;;;;5035746;28;20049;-70
2022/07/21 05:50:06;;;;;;;35.63;22.73;;;19.90;99.90;;;;;;5052169;28;20049;-66
2022/07/21 05:52:32;;;;;;;36.33;22.48;;;19.90;99.90;;;;;;5052177;28;20051;-68
2022/07/21 05:54:57;;;;;;;38.28;23.73;;;20.00;99.90;;;;;;5035500;28;20040;-68
2022/07/21 05:57:23;;;;;;;38.40;23.45;;;20.00;99.90;;;;;;5051997;28;20457;-67
2022/07/21 05:59:49;;;;;;;38.60;23.15;;;20.00;99.90;;;;;;5018465;28;20044;-67
2022/07/21 06:02:21;;;;;;;40.08;24.73;;;19.90;99.90;;;;;;5034891;28;20045;-67
2022/07/21 06:04:46;;;;;;;34.08;21.95;;;20.00;99.90;;;;;;5035090;28;20037;-67
2022/07/21 06:07:12;;;;;;;33.95;22.13;;;19.90;99.90;;;;;;5051666;28;20055;-67
2022/07/21 06:09:38;;;;;;;37.33;24.10;;;19.90;99.90;;;;;;5051481;28;20040;-67
2022/07/21 06:12:04;;;;;;;33.80;22.95;;;19.90;99.90;;;;;;5018953;28;20521;-68
2022/07/21 06:14:30;;;;;;;37.47;24.13;;;19.90;99.90;;;;;;5035212;28;20113;-67
2022/07/21 06:16:55;;;;;;;36.55;23.88;;;19.90;99.90;;;;;;5035165;28;20071;-69
2022/07/21 06:19:21;;;;;;;39.90;25.63;;;19.90;99.90;;;;;;5034857;28;20672;-69
2022/07/21 06:21:50;;;;;;;40.25;25.98;;;19.90;99.90;;;;;;5034699;28;20052;-67
2022/07/21 06:24:15;;;;;;;35.70;23.70;;;20.00;99.90;;;;;;5034634;28;20052;-67
2022/07/21 06:26:41;;;;;;;44.03;26.70;;;20.10;99.90;;;;;;5051579;28;20037;-66
2022/07/21 06:29:07;;;;;;;42.00;27.05;;;20.20;99.90;;;;;;5051301;28;20044;-67
2022/07/21 06:31:33;;;;;;;45.42;28.48;;;20.40;99.90;;;;;;5051155;28;20434;-67
2022/07/21 06:33:59;;;;;;;43.78;28.33;;;20.60;99.90;;;;;;5084520;28;20533;-68
2022/07/21 06:36:25;;;;;;;41.45;26.77;;;20.80;99.90;;;;;;5068129;28;20127;-68
2022/07/21 06:38:51;;;;;;;35.20;25.85;;;20.90;99.90;;;;;;5051119;28;20053;-69
2022/07/21 06:41:16;;;;;;;32.83;25.42;;;21.00;99.90;;;;;;5034509;28;20052;-68
2022/07/21 06:43:42;;;;;;;35.40;25.63;;;21.10;99.90;;;;;;5066698;28;20099;-67
2022/07/21 06:46:08;;;;;;;35.75;24.80;;;21.10;99.90;;;;;;5034745;28;20493;-67
2022/07/21 06:48:34;;;;;;;32.78;22.58;;;21.10;99.90;;;;;;5050946;28;20053;-67
2022/07/21 06:51:02;;;;;;;33.13;23.65;;;21.10;99.90;;;;;;5051009;28;20388;-67
2022/07/21 06:53:28;;;;;;;31.73;23.92;;;21.00;99.90;;;;;;5034249;28;20041;-67
2022/07/21 06:55:54;;;;;;;33.75;23.67;;;20.90;99.90;;;;;;5067468;28;20044;-66
2022/07/21 06:58:22;;;;;;;33.65;24.52;;;20.90;99.90;;;;;;5051024;28;20398;-66
2022/07/21 07:00:49;;;;;;;32.13;24.15;;;20.80;99.90;;;;;;5050506;28;20041;-66
2022/07/21 07:03:16;;;;;;;33.65;24.98;;;20.80;99.90;;;;;;5050709;28;20116;-66
2022/07/21 07:05:43;;;;;;;34.53;25.95;;;20.70;99.90;;;;;;5017825;28;20045;-67
2022/07/21 07:08:10;;;;;;;35.67;26.40;;;20.80;99.90;;;;;;5067294;28;20049;-70
2022/07/21 07:10:36;;;;;;;37.15;26.75;;;20.70;99.90;;;;;;5050342;28;20049;-67
2022/07/21 07:13:01;;;;;;;35.85;25.70;;;20.70;99.90;;;;;;5050496;28;20483;-67
2022/07/21 07:15:28;;;;;;;32.53;24.48;;;20.70;99.90;;;;;;5050574;28;20399;-66
2022/07/21 07:17:54;;;;;;;41.78;26.17;;;20.70;99.90;;;;;;5034116;28;20045;-66
2022/07/21 07:20:20;;;;;;;35.38;26.33;;;20.70;99.90;;;;;;5017326;28;20140;-66
2022/07/21 07:22:46;;;;;;;34.97;26.65;;;20.70;99.90;;;;;;5050540;28;20127;-66
2022/07/21 07:25:16;;;;;;;37.33;26.85;;;20.50;99.90;;;;;;5050577;28;20076;-67
2022/07/21 07:27:43;;;;;;;34.28;26.10;;;20.70;99.90;;;;;;5050662;28;20084;-67
2022/07/21 07:30:10;;;;;;;37.72;27.60;;;20.50;99.90;;;;;;5066564;28;20110;-70
2022/07/21 07:32:35;;;;;;;37.25;26.42;;;20.30;99.90;;;;;;5050486;28;20065;-68
2022/07/21 07:35:01;;;;;;;35.67;27.40;;;20.20;99.90;;;;;;5063687;28;20059;-66
2022/07/21 07:37:27;;;;;;;36.38;27.35;;;20.20;99.90;;;;;;5050311;28;20100;-67
2022/07/21 07:39:52;;;;;;;37.72;28.50;;;20.10;99.90;;;;;;5033454;28;20056;-66
2022/07/21 07:42:18;;;;;;;37.55;28.17;;;20.00;99.90;;;;;;5033334;28;20041;-66
2022/07/21 07:44:45;;;;;;;42.80;28.70;;;19.90;99.90;;;;;;5017333;28;20087;-66
2022/07/21 07:47:10;;;;;;;37.97;27.30;;;19.90;99.90;;;;;;5050268;28;20045;-67
2022/07/21 07:49:36;;;;;;;36.83;27.40;;;20.00;99.90;;;;;;5049976;28;20049;-67
2022/07/21 07:52:02;;;;;;;37.35;27.02;;;19.90;99.90;;;;;;5067107;28;20167;-67
2022/07/21 07:54:28;;;;;;;40.67;28.27;;;19.90;99.90;;;;;;5017559;28;20083;-65
2022/07/21 07:56:54;;;;;;;35.30;27.00;;;19.80;99.90;;;;;;5021181;28;20395;-66
2022/07/21 07:59:20;;;;;;;35.97;26.73;;;19.90;99.90;;;;;;5053955;28;20045;-66
2022/07/21 08:01:45;;;;;;;36.28;27.13;;;19.90;99.90;;;;;;5037428;28;20124;-67
2022/07/21 08:04:14;;;;;;;37.17;25.70;;;20.10;99.90;;;;;;5053949;28;20047;-66
2022/07/21 08:06:40;;;;;;;36.67;27.70;;;20.10;99.90;;;;;;5021555;28;20041;-68
2022/07/21 08:09:05;;;;;;;36.10;27.23;;;20.20;99.90;;;;;;5036941;28;20052;-66
2022/07/21 08:11:31;;;;;;;35.47;27.42;;;20.20;99.90;;;;;;5037427;28;20103;-68
2022/07/21 08:13:57;;;;;;;35.78;26.63;;;20.20;99.90;;;;;;5037368;28;20135;-67
2022/07/21 08:16:22;;;;;;;36.47;26.65;;;20.30;99.90;;;;;;5037473;28;20084;-67
2022/07/21 08:18:48;;;;;;;33.22;26.45;;;20.40;99.90;;;;;;5053417;28;20075;-66
2022/07/21 08:21:14;;;;;;;36.15;25.58;;;20.50;99.90;;;;;;5053566;28;20128;-67
2022/07/21 08:23:39;;;;;;;35.92;26.73;;;20.50;99.90;;;;;;5037121;28;20128;-67
2022/07/21 08:26:05;;;;;;;36.28;27.38;;;20.60;99.90;;;;;;5070729;28;20456;-66
2022/07/21 08:28:31;;;;;;;31.00;24.85;;;20.70;99.90;;;;;;5053097;28;20052;-66
2022/07/21 08:30:57;;;;;;;32.40;25.35;;;20.80;99.90;;;;;;5053755;28;20049;-66
2022/07/21 08:33:23;;;;;;;31.95;24.15;;;21.00;99.90;;;;;;5069865;28;20045;-66
2022/07/21 08:35:48;;;;;;;28.58;22.50;;;21.10;99.90;;;;;;5036871;28;20049;-68
2022/07/21 08:38:14;;;;;;;30.17;23.90;;;21.30;99.90;;;;;;5037069;28;20072;-68
2022/07/21 08:40:43;;;;;;;30.08;23.60;;;21.50;99.90;;;;;;5052820;28;20037;-69
2022/07/21 08:43:09;;;;;;;30.50;24.98;;;21.60;99.90;;;;;;5051518;28;20530;-71
2022/07/21 08:45:37;;;;;;;29.75;24.38;;;22.00;99.90;;;;;;5070459;28;20045;-68
2022/07/21 08:48:03;;;;;;;31.00;24.02;;;22.40;99.90;;;;;;5053453;28;20076;-68
2022/07/21 08:50:31;;;;;;;29.00;23.00;;;22.60;99.90;;;;;;5036260;28;20789;-69
2022/07/21 08:53:00;;;;;;;32.05;24.38;;;22.70;99.90;;;;;;5053378;28;20075;-68
2022/07/21 08:55:36;;;;;;;25.23;21.05;;;22.90;99.90;;;;;;5053310;28;20044;-70
2022/07/21 08:58:03;;;;;;;27.33;21.55;;;23.30;99.90;;;;;;5053301;28;20041;-68
2022/07/21 09:00:29;;;;;;;30.52;21.55;;;23.40;99.90;;;;;;5036072;28;20055;-69
2022/07/21 09:03:24;;;;;;;23.63;19.48;;;23.30;99.90;;;;;;5054228;28;20044;-67
2022/07/21 09:06:00;;;;;;;25.00;20.73;;;23.50;99.90;;;;;;5052807;28;20044;-68
2022/07/21 09:08:31;;;;;;;27.13;19.90;;;23.90;99.90;;;;;;5051938;28;20044;-69
2022/07/21 09:11:17;;;;;;;22.27;19.88;;;23.90;99.90;;;;;;5053069;28;20053;-68
2022/07/21 09:13:46;;;;;;;22.10;18.45;;;24.00;99.90;;;;;;5052991;28;20048;-68
2022/07/21 09:16:12;;;;;;;22.25;17.90;;;24.10;99.90;;;;;;5036452;28;20073;-67
2022/07/21 09:18:50;;;;;;;22.10;18.83;;;24.00;99.90;;;;;;5069274;28;20080;-68
2022/07/21 09:21:17;;;;;;;22.83;19.67;;;23.70;99.90;;;;;;5052751;28;20077;-69
2022/07/21 09:23:43;;;;;;;25.02;20.20;;;23.80;99.90;;;;;;5052147;28;20037;-68
2022/07/21 09:26:09;;;;;;;22.50;18.55;;;24.00;99.90;;;;;;5069401;28;20094;-71
2022/07/21 09:28:35;;;;;;;21.63;17.85;;;24.30;99.90;;;;;;5051986;28;20045;-69
2022/07/21 09:31:06;;;;;;;21.52;17.42;;;24.20;99.90;;;;;;5052446;28;20187;-67
2022/07/21 09:33:43;;;;;;;22.50;19.00;;;24.10;99.90;;;;;;5058132;28;20081;-67
2022/07/21 09:36:15;;;;;;;25.30;19.15;;;24.10;99.90;;;;;;5075123;28;20078;-69
2022/07/21 09:38:54;;;;;;;23.83;19.80;;;24.00;99.90;;;;;;5035485;28;20049;-67
2022/07/21 09:41:22;;;;;;;23.05;19.77;;;24.00;99.90;;;;;;5052123;28;20630;-66
2022/07/21 09:43:51;;;;;;;22.65;19.00;;;24.10;99.90;;;;;;5052118;28;20080;-66
2022/07/21 09:46:19;;;;;;;20.83;18.33;;;24.20;99.90;;;;;;5052460;28;20041;-66
2022/07/21 09:48:47;;;;;;;20.00;17.90;;;24.20;99.90;;;;;;5051954;28;20049;-68
2022/07/21 09:51:33;;;;;;;22.85;19.05;;;24.10;99.90;;;;;;5069033;28;20052;-67
2022/07/21 09:54:11;;;;;;;22.45;16.40;;;24.10;99.90;;;;;;5052320;28;20053;-70
2022/07/21 09:56:42;;;;;;;18.63;15.60;;;24.00;99.90;;;;;;5035517;28;20055;-69
2022/07/21 09:59:11;;;;;;;18.25;16.13;;;24.00;99.90;;;;;;5068495;28;20049;-68
2022/07/21 10:01:37;;;;;;;20.25;17.50;;;24.10;99.90;;;;;;5051882;28;20450;-69
2022/07/21 10:04:04;;;;;;;21.42;18.08;;;24.00;99.90;;;;;;5051476;28;20057;-68
2022/07/21 10:06:34;;;;;;;25.02;19.50;;;23.80;99.90;;;;;;5052137;28;20052;-68
2022/07/21 10:09:03;;;;;;;23.90;19.55;;;23.70;99.90;;;;;;5034781;28;20045;-68
2022/07/21 10:11:29;;;;;;;24.85;19.77;;;23.50;99.90;;;;;;5051915;28;20095;-69
2022/07/21 10:13:55;;;;;;;25.38;19.58;;;23.30;99.90;;;;;;5051504;28;20080;-69
2022/07/21 10:16:21;;;;;;;25.23;19.98;;;22.90;99.90;;;;;;5051840;28;20076;-68
2022/07/21 10:19:22;;;;;;;22.08;18.38;;;22.90;99.90;;;;;;5051221;28;20644;-67
2022/07/21 10:22:04;;;;;;;23.05;18.50;;;22.80;99.90;;;;;;5051453;28;20400;-68
2022/07/21 10:24:31;;;;;;;23.35;19.60;;;22.70;99.90;;;;;;5084970;28;20049;-69
2022/07/21 10:27:03;;;;;;;24.63;19.02;;;22.70;99.90;;;;;;5067888;28;20075;-68
2022/07/21 10:29:47;;;;;;;25.20;18.95;;;22.70;99.90;;;;;;5051248;28;20528;-67
2022/07/21 10:32:15;;;;;;;24.95;19.30;;;22.80;99.90;;;;;;5034840;28;20087;-68
2022/07/21 10:34:42;;;;;;;21.75;19.05;;;22.80;99.90;;;;;;5047681;28;20078;-67
2022/07/21 10:37:08;;;;;;;24.98;20.70;;;22.80;99.90;;;;;;5051636;28;20433;-68
2022/07/21 10:39:34;;;;;;;23.25;19.90;;;22.80;99.90;;;;;;5034110;28;20052;-68
2022/07/21 10:42:16;;;;;;;25.98;21.00;;;22.80;99.90;;;;;;5051259;28;20059;-68
2022/07/21 10:44:44;;;;;;;28.48;22.50;;;23.00;99.90;;;;;;5051390;28;20403;-67
2022/07/21 10:47:30;;;;;;;27.17;22.55;;;22.90;99.90;;;;;;5051150;28;20048;-69
2022/07/21 10:50:04;;;;;;;26.98;21.98;;;22.90;99.90;;;;;;5034875;28;20063;-67
2022/07/21 10:52:39;;;;;;;28.00;22.27;;;22.80;99.90;;;;;;5050855;28;20485;-67
2022/07/21 10:55:14;;;;;;;28.58;22.33;;;22.70;99.90;;;;;;5034834;28;20078;-67
2022/07/21 10:57:45;;;;;;;27.13;20.92;;;22.70;99.90;;;;;;5050850;28;20055;-69
2022/07/21 11:00:30;;;;;;;27.00;21.25;;;22.60;99.90;;;;;;5050714;28;20056;-67
2022/07/21 11:02:59;;;;;;;26.13;20.25;;;22.50;99.90;;;;;;5051030;28;20083;-69
2022/07/21 11:05:29;;;;;;;30.65;22.52;;;22.30;99.90;;;;;;5067659;28;20547;-69
2022/07/21 11:08:18;;;;;;;28.50;22.23;;;22.30;99.90;;;;;;5067486;28;20052;-65
2022/07/21 11:10:48;;;;;;;28.48;22.67;;;22.20;99.90;;;;;;5050486;28;20040;-66
2022/07/21 11:13:15;;;;;;;30.65;22.45;;;22.10;99.90;;;;;;5050771;28;20562;-68
2022/07/21 11:15:45;;;;;;;28.08;21.98;;;22.00;99.90;;;;;;5050550;28;20534;-67
2022/07/21 11:18:11;;;;;;;29.13;22.60;;;22.00;99.90;;;;;;5033745;28;20122;-66
2022/07/21 11:20:37;;;;;;;29.52;23.35;;;22.00;99.90;;;;;;5067246;28;20049;-66
2022/07/21 11:23:03;;;;;;;29.25;21.42;;;21.90;99.90;;;;;;5033681;28;20052;-67
2022/07/21 11:25:34;;;;;;;30.05;21.95;;;21.90;99.90;;;;;;5033723;28;20040;-67
2022/07/21 11:27:59;;;;;;;;;;;21.90;99.90;;;;;;5034179;28;20057;-67
2022/07/21 11:30:25;;;;;;;32.72;25.90;;;21.90;99.90;;;;;;5032940;28;20287;-67
2022/07/21 11:32:52;;;;;;;38.45;26.25;;;21.50;99.90;;;;;;5050266;28;20068;-68
2022/07/21 11:35:18;;;;;;;42.30;30.10;;;21.20;99.90;;;;;;5050529;28;20049;-70
2022/07/21 11:37:45;;;;;;;43.13;30.23;;;20.70;99.90;;;;;;5050251;28;20049;-69
2022/07/21 11:40:19;;;;;;;53.05;33.55;;;20.40;99.90;;;;;;5033460;28;20124;-68
2022/07/21 11:42:50;;;;;;;55.05;34.95;;;20.20;99.90;;;;;;5033325;28;20474;-69
2022/07/21 11:45:17;;;;;;;63.80;37.47;;;19.90;99.90;;;;;;5034014;28;20077;-68
2022/07/21 11:47:42;;;;;;;65.85;38.95;;;19.80;99.90;;;;;;5017596;28;20098;-68
2022/07/21 11:50:11;;;;;;;63.15;38.25;;;19.80;99.90;;;;;;5050209;28;20053;-68
2022/07/21 11:52:39;;;;;;;69.38;39.63;;;19.90;99.90;;;;;;5066758;28;20057;-68
2022/07/21 11:55:08;;;;;;;64.68;39.42;;;19.90;99.90;;;;;;5067046;28;20414;-68
2022/07/21 11:57:34;;;;;;;80.90;44.17;;;20.00;99.90;;;;;;5050095;28;20061;-68
2022/07/21 12:00:00;;;;;;;62.40;38.90;;;20.20;99.90;;;;;;5049945;28;20081;-69
2022/07/21 12:02:29;;;;;;;69.57;42.03;;;20.40;99.90;;;;;;5033484;28;20384;-69
2022/07/21 12:04:57;;;;;;;57.15;35.42;;;20.60;99.90;;;;;;5050166;28;20541;-68
2022/07/21 12:07:44;;;;;;;70.45;40.50;;;20.70;99.90;;;;;;5033728;28;20061;-68
2022/07/21 12:10:16;;;;;;;66.95;41.08;;;20.90;99.90;;;;;;5049422;28;20041;-67
2022/07/21 12:12:44;;;;;;;65.65;39.10;;;21.10;99.90;;;;;;5067059;28;20124;-67
2022/07/21 12:15:31;;;;;;;59.70;37.90;;;21.30;99.90;;;;;;5033750;28;20059;-67
2022/07/21 12:18:03;;;;;;;58.15;36.47;;;21.50;99.90;;;;;;5050062;28;20052;-72
2022/07/21 12:20:30;;;;;;;59.97;38.67;;;21.70;99.90;;;;;;5049993;28;20882;-67
2022/07/21 12:22:58;;;;;;;63.40;39.75;;;21.90;99.90;;;;;;5033472;28;20045;-68
2022/07/21 12:25:38;;;;;;;61.55;38.25;;;22.00;99.90;;;;;;5049737;28;20081;-68
2022/07/21 12:28:05;;;;;;;73.57;42.70;;;22.40;99.90;;;;;;5066509;28;20128;-67
2022/07/21 12:30:34;;;;;;;64.22;40.50;;;22.90;99.90;;;;;;5049810;28;20650;-67
2022/07/21 12:33:10;;;;;;;70.70;43.92;;;23.20;99.90;;;;;;5034723;28;20068;-67